Decoded Metar for VVCT (CANTHO in VIET NAM) (IATA:N/A) | Meteo·Mobile Aviation Weather
aviador You're here:

VVCT Decoded Metar

CANTHO in VIET NAM
Report Time2019-07-23 03:00:00
UTC Time2019-07-23 03:40:04
Flight Rules mvfr MVFR
Wind250° at 08 kt
W.Decomp.*RWY 24: 7.9 kt HW 1.4 kt RCW
Visibility9999 m
Phenomena:N/A
Clouds:Broken 015 Hf
Expected CloudBase > 2,000 ft AGL from Temp-Dew spread
Ceiling1,500 ft
Temp32°C (ISA +17)
Dew Point27°C (75% RH)
Heat Index42.3°C
QNH1008 hPa
Density Alt2,585 ft
Elevation9 ft
Report Wrong Elevation
Raw Report
METAR VVCT 230300Z 25008KT 220V320 9999 BKN015 32/27 Q1008 NOSIG=

Extra information for VVCT:More info

Metar Taf Metar & Taf Last 4 Metars F.Rules Stats Wind Profile Meteogram Temp Stats Metar ALERT Operation Metar Decoded Social comments